createdAt,value
2023-01-19T00:00:54.621Z,17.58
2023-01-19T00:03:21.600Z,16.02
2023-01-19T00:05:48.935Z,17.38
2023-01-19T00:08:17.327Z,17.95
2023-01-19T00:10:48.383Z,17.27
2023-01-19T00:13:15.942Z,18.40
2023-01-19T00:15:44.752Z,17.10
2023-01-19T00:18:11.689Z,14.45
2023-01-19T00:20:40.738Z,14.13
2023-01-19T00:23:08.369Z,12.75
2023-01-19T00:25:42.243Z,13.73
2023-01-19T00:28:14.262Z,12.82
2023-01-19T00:30:42.441Z,12.98
2023-01-19T00:33:13.638Z,12.98
2023-01-19T00:35:42.640Z,13.45
2023-01-19T00:38:11.648Z,13.93
2023-01-19T00:40:38.609Z,14.27
2023-01-19T00:43:05.548Z,14.43
2023-01-19T00:45:34.115Z,14.10
2023-01-19T00:48:01.887Z,13.70
2023-01-19T00:50:31.938Z,12.98
2023-01-19T00:53:01.255Z,13.30
2023-01-19T00:55:30.430Z,13.50
2023-01-19T00:57:58.034Z,13.75
2023-01-19T01:00:25.761Z,14.35
2023-01-19T01:02:53.802Z,12.88
2023-01-19T01:05:21.287Z,14.68
2023-01-19T01:07:49.524Z,14.60
2023-01-19T01:10:29.490Z,14.93
2023-01-19T01:13:20.554Z,15.23
2023-01-19T01:15:44.120Z,14.90
2023-01-19T01:18:11.001Z,14.10
2023-01-19T01:20:37.939Z,14.25
2023-01-19T01:23:04.907Z,13.85
2023-01-19T01:25:34.009Z,14.55
2023-01-19T01:28:02.942Z,12.90
2023-01-19T01:30:29.879Z,13.80
2023-01-19T01:32:56.737Z,13.35
2023-01-19T01:35:23.645Z,13.10
2023-01-19T01:37:50.565Z,13.80
2023-01-19T01:40:19.181Z,13.50
2023-01-19T01:42:46.219Z,12.60
2023-01-19T01:45:25.707Z,13.25
2023-01-19T01:47:58.438Z,12.07
2023-01-19T01:50:35.241Z,14.88
2023-01-19T01:53:11.603Z,12.93
2023-01-19T01:55:48.286Z,13.32
2023-01-19T01:58:16.842Z,14.52
2023-01-19T02:01:02.624Z,12.25
2023-01-19T02:03:29.958Z,12.95
2023-01-19T02:06:04.359Z,12.80
2023-01-19T02:09:11.229Z,13.05
2023-01-19T02:11:57.448Z,12.73
2023-01-19T02:14:24.368Z,13.57
2023-01-19T02:16:51.502Z,12.48
2023-01-19T02:19:34.629Z,12.50
2023-01-19T02:22:14.768Z,11.98
2023-01-19T02:24:42.847Z,12.98
2023-01-19T02:27:12.145Z,12.63
2023-01-19T02:29:40.168Z,12.57
2023-01-19T02:32:08.823Z,11.38
2023-01-19T02:34:35.976Z,11.63
2023-01-19T02:37:15.728Z,12.73
2023-01-19T02:40:00.885Z,11.27
2023-01-19T02:42:37.650Z,11.45
2023-01-19T02:45:09.426Z,12.85
2023-01-19T02:47:45.112Z,11.18
2023-01-19T02:50:39.395Z,11.15
2023-01-19T02:53:38.436Z,12.00
2023-01-19T02:56:14.577Z,11.07
2023-01-19T02:59:23.241Z,12.25
2023-01-19T03:02:18.121Z,11.93
2023-01-19T03:04:59.554Z,11.15
2023-01-19T03:08:24.918Z,11.68
2023-01-19T03:11:05.543Z,11.75
2023-01-19T03:13:53.708Z,10.90
2023-01-19T03:16:27.338Z,11.88
2023-01-19T03:19:29.915Z,10.48
2023-01-19T03:22:02.912Z,10.30
2023-01-19T03:24:37.126Z,9.43
2023-01-19T03:27:13.969Z,9.35
2023-01-19T03:29:50.959Z,10.07
2023-01-19T03:32:23.597Z,9.07
2023-01-19T03:34:52.916Z,8.85
2023-01-19T03:37:22.446Z,10.55
2023-01-19T03:39:49.801Z,10.23
2023-01-19T03:42:19.244Z,9.55
2023-01-19T03:44:50.601Z,9.68
2023-01-19T03:47:20.141Z,9.63
2023-01-19T03:49:50.695Z,9.80
2023-01-19T03:52:17.689Z,8.80
2023-01-19T03:54:44.620Z,10.43
2023-01-19T03:57:11.509Z,8.95
2023-01-19T03:59:38.403Z,9.82
2023-01-19T04:02:05.339Z,8.98
2023-01-19T04:04:32.220Z,10.32
2023-01-19T04:06:59.225Z,9.60
2023-01-19T04:09:26.127Z,9.55
2023-01-19T04:11:53.087Z,9.90
2023-01-19T04:14:19.997Z,9.55
2023-01-19T04:16:46.874Z,10.13
2023-01-19T04:19:13.910Z,9.93
2023-01-19T04:21:40.790Z,9.40
2023-01-19T04:24:09.724Z,8.65
2023-01-19T04:26:37.419Z,9.35
2023-01-19T04:29:04.456Z,10.27
2023-01-19T04:31:31.648Z,9.80
2023-01-19T04:33:58.591Z,9.48
2023-01-19T04:36:25.506Z,10.10
2023-01-19T04:38:52.551Z,9.52
2023-01-19T04:41:19.403Z,10.30
2023-01-19T04:43:47.713Z,8.82
2023-01-19T04:46:15.255Z,9.20
2023-01-19T04:48:42.349Z,9.23
2023-01-19T04:51:09.750Z,10.43
2023-01-19T04:53:36.699Z,10.15
2023-01-19T04:56:03.920Z,9.02
2023-01-19T04:58:30.767Z,8.73
2023-01-19T05:00:57.711Z,8.60
2023-01-19T05:03:26.526Z,8.80
2023-01-19T05:05:53.684Z,9.05
2023-01-19T05:08:20.574Z,8.57
2023-01-19T05:10:48.510Z,8.35
2023-01-19T05:13:15.425Z,8.43
2023-01-19T05:15:42.405Z,8.10
2023-01-19T05:18:09.673Z,8.23
2023-01-19T05:20:36.517Z,7.55
2023-01-19T05:23:03.750Z,7.95
2023-01-19T05:25:30.859Z,7.40
2023-01-19T05:27:57.767Z,7.93
2023-01-19T05:30:24.626Z,7.72
2023-01-19T05:32:51.497Z,7.65
2023-01-19T05:35:25.010Z,7.80
2023-01-19T05:37:58.230Z,7.32
2023-01-19T05:40:25.084Z,7.30
2023-01-19T05:42:53.225Z,7.05
2023-01-19T05:45:20.091Z,6.95
2023-01-19T05:47:47.094Z,6.63
2023-01-19T05:50:14.237Z,7.55
2023-01-19T05:52:41.429Z,6.28
2023-01-19T05:55:09.181Z,7.00
2023-01-19T05:57:36.175Z,6.05
2023-01-19T06:00:05.213Z,5.60
2023-01-19T06:02:36.167Z,5.15
2023-01-19T06:05:04.665Z,6.03
2023-01-19T06:07:32.299Z,5.80
2023-01-19T06:09:59.449Z,5.88
2023-01-19T06:12:26.621Z,6.70
2023-01-19T06:14:53.814Z,6.38
2023-01-19T06:17:20.980Z,6.15
2023-01-19T06:19:47.864Z,5.97
2023-01-19T06:22:14.891Z,6.28
2023-01-19T06:24:41.859Z,6.43
2023-01-19T06:27:09.164Z,5.90
2023-01-19T06:29:36.383Z,5.90
2023-01-19T06:32:03.400Z,4.95
2023-01-19T06:34:30.382Z,6.20
2023-01-19T06:36:58.251Z,6.20
2023-01-19T06:39:25.516Z,5.88
2023-01-19T06:41:52.409Z,5.95
2023-01-19T06:44:19.284Z,6.60
2023-01-19T06:46:46.383Z,7.10
2023-01-19T06:49:14.492Z,7.93
2023-01-19T06:51:41.576Z,6.82
2023-01-19T06:54:09.298Z,8.23
2023-01-19T06:56:36.223Z,9.30
2023-01-19T06:59:03.298Z,9.75
2023-01-19T07:01:30.373Z,8.38
2023-01-19T07:03:57.321Z,9.50
2023-01-19T07:06:24.285Z,8.57
2023-01-19T07:08:51.212Z,9.40
2023-01-19T07:11:26.596Z,9.52
2023-01-19T07:13:59.309Z,9.65
2023-01-19T07:16:26.652Z,8.85
2023-01-19T07:18:54.120Z,9.07
2023-01-19T07:21:22.011Z,7.93
2023-01-19T07:23:54.025Z,8.75
2023-01-19T07:26:21.863Z,8.73
2023-01-19T07:28:49.115Z,8.30
2023-01-19T07:31:17.977Z,9.43
2023-01-19T07:33:45.434Z,9.38
2023-01-19T07:36:12.784Z,9.18
2023-01-19T07:38:39.899Z,8.63
2023-01-19T07:41:09.983Z,8.10
2023-01-19T07:43:37.021Z,7.82
2023-01-19T07:46:07.525Z,8.57
2023-01-19T07:48:35.028Z,9.40
2023-01-19T07:51:12.941Z,8.57
2023-01-19T07:53:41.757Z,8.52
2023-01-19T07:56:09.076Z,8.50
2023-01-19T07:58:36.169Z,10.07
2023-01-19T08:01:12.824Z,8.63
2023-01-19T08:03:39.909Z,8.80
2023-01-19T08:06:07.696Z,8.30
2023-01-19T08:08:35.161Z,8.35
2023-01-19T08:11:03.133Z,8.38
2023-01-19T08:13:30.053Z,8.82
2023-01-19T08:15:57.006Z,8.10
2023-01-19T08:18:24.057Z,8.63
2023-01-19T08:20:51.004Z,8.13
2023-01-19T08:23:18.677Z,7.43
2023-01-19T08:25:45.932Z,7.57
2023-01-19T08:28:18.458Z,8.75
2023-01-19T08:30:45.610Z,8.10
2023-01-19T08:33:14.005Z,8.10
2023-01-19T08:35:43.558Z,7.68
2023-01-19T08:38:11.360Z,7.65
2023-01-19T08:40:40.749Z,7.45
2023-01-19T08:43:17.463Z,8.02
2023-01-19T08:45:51.220Z,7.30
2023-01-19T08:48:22.683Z,6.55
2023-01-19T08:50:51.961Z,7.05
2023-01-19T08:53:21.121Z,7.13
2023-01-19T08:55:48.020Z,7.95
2023-01-19T08:58:15.573Z,6.90
2023-01-19T09:00:42.908Z,7.57
2023-01-19T09:03:13.806Z,6.88
2023-01-19T09:05:41.991Z,7.50
2023-01-19T09:08:13.933Z,6.28
2023-01-19T09:10:48.568Z,6.05
2023-01-19T09:13:24.417Z,5.72
2023-01-19T09:15:56.795Z,6.03
2023-01-19T09:18:24.272Z,5.82
2023-01-19T09:20:51.555Z,6.43
2023-01-19T09:23:21.067Z,5.78
2023-01-19T09:25:49.198Z,5.53
2023-01-19T09:28:22.245Z,5.70
2023-01-19T09:30:52.938Z,5.72
2023-01-19T09:33:21.160Z,5.75
2023-01-19T09:35:49.460Z,6.38
2023-01-19T09:38:18.095Z,6.22
2023-01-19T09:40:50.813Z,5.05
2023-01-19T09:43:41.483Z,5.25
2023-01-19T09:46:43.079Z,4.75
2023-01-19T09:49:27.972Z,5.15
2023-01-19T09:51:55.290Z,4.85
2023-01-19T09:54:49.276Z,5.70
2023-01-19T09:57:16.656Z,5.57
2023-01-19T09:59:47.736Z,5.82
2023-01-19T10:02:44.884Z,5.55
2023-01-19T10:05:48.139Z,5.47
2023-01-19T10:08:42.700Z,4.78
2023-01-19T10:11:52.601Z,4.47
2023-01-19T10:14:44.981Z,3.97
2023-01-19T10:18:00.422Z,5.43
2023-01-19T10:20:37.105Z,4.65
2023-01-19T10:23:21.381Z,4.90
2023-01-19T10:25:48.580Z,5.03
2023-01-19T10:28:25.399Z,4.78
2023-01-19T10:30:55.403Z,4.88
2023-01-19T10:33:25.728Z,4.45
2023-01-19T10:35:57.372Z,5.30
2023-01-19T10:38:25.376Z,4.78
2023-01-19T10:41:11.677Z,4.75
2023-01-19T10:43:43.421Z,4.72
2023-01-19T10:46:21.564Z,5.13
2023-01-19T10:48:51.712Z,4.82
2023-01-19T10:51:19.890Z,5.10
2023-01-19T10:54:04.604Z,4.40
2023-01-19T10:56:36.095Z,4.47
2023-01-19T10:59:06.880Z,5.00
2023-01-19T11:01:36.925Z,5.50
2023-01-19T11:04:29.594Z,4.85
2023-01-19T11:07:26.048Z,4.43
2023-01-19T11:10:22.438Z,4.85
2023-01-19T11:13:14.248Z,4.70
2023-01-19T11:15:54.182Z,4.05
2023-01-19T11:18:35.447Z,5.10
2023-01-19T11:21:10.937Z,4.88
2023-01-19T11:24:00.970Z,4.40
2023-01-19T11:26:41.685Z,3.90
2023-01-19T11:29:26.218Z,4.60
2023-01-19T11:31:57.519Z,4.45
2023-01-19T11:34:38.648Z,5.20
2023-01-19T11:37:15.973Z,4.88
2023-01-19T11:39:49.931Z,4.25
2023-01-19T11:42:19.067Z,4.05
2023-01-19T11:45:00.992Z,4.57
2023-01-19T11:47:34.055Z,4.32
2023-01-19T11:50:13.901Z,4.50
2023-01-19T11:52:48.192Z,4.53
2023-01-19T11:55:24.269Z,4.18
2023-01-19T11:57:55.343Z,4.45
2023-01-19T12:00:38.392Z,4.07
2023-01-19T12:03:36.095Z,3.90
2023-01-19T12:06:30.892Z,4.65
2023-01-19T12:09:10.920Z,5.40
2023-01-19T12:11:46.392Z,5.10
2023-01-19T12:16:55.143Z,4.70
2023-01-19T12:19:35.819Z,4.28
2023-01-19T12:22:05.053Z,4.45
2023-01-19T12:24:49.056Z,4.43
2023-01-19T12:27:37.563Z,4.82
2023-01-19T12:30:11.633Z,4.40
2023-01-19T12:32:38.623Z,5.45
2023-01-19T12:35:06.490Z,4.60
2023-01-19T12:37:41.664Z,4.68
2023-01-19T12:40:29.056Z,4.13
2023-01-19T12:42:59.107Z,4.35
2023-01-19T12:45:35.049Z,3.92
2023-01-19T12:48:04.362Z,3.85
2023-01-19T12:50:53.700Z,3.17
2023-01-19T12:53:22.899Z,3.78
2023-01-19T12:56:06.306Z,3.13
2023-01-19T12:58:34.494Z,3.70
2023-01-19T13:01:21.455Z,3.95
2023-01-19T13:04:26.804Z,3.13
2023-01-19T13:06:54.790Z,3.40
2023-01-19T13:09:35.653Z,3.10
2023-01-19T13:12:25.563Z,4.10
2023-01-19T13:17:57.077Z,3.30
2023-01-19T13:20:46.729Z,3.35
2023-01-19T13:23:28.888Z,2.92
2023-01-19T13:26:06.504Z,3.78
2023-01-19T13:28:45.247Z,3.72
2023-01-19T13:31:14.181Z,3.13
2023-01-19T13:33:56.006Z,3.75
2023-01-19T13:36:37.408Z,3.72
2023-01-19T13:39:18.491Z,3.17
2023-01-19T13:41:48.326Z,3.22
2023-01-19T13:44:28.162Z,3.92
2023-01-19T13:46:57.496Z,3.65
2023-01-19T13:49:35.296Z,3.70
2023-01-19T13:52:25.927Z,4.50
2023-01-19T13:55:03.583Z,4.13
2023-01-19T13:57:41.543Z,3.72
2023-01-19T14:00:14.645Z,3.47
2023-01-19T14:03:02.615Z,3.17
2023-01-19T14:05:32.987Z,3.67
2023-01-19T14:08:11.297Z,4.00
2023-01-19T14:11:07.615Z,3.83
2023-01-19T14:13:43.253Z,3.70
2023-01-19T14:16:17.555Z,3.67
2023-01-19T14:18:44.627Z,4.30
2023-01-19T14:21:14.425Z,4.40
2023-01-19T14:23:51.724Z,4.07
2023-01-19T14:26:37.506Z,4.70
2023-01-19T14:29:35.570Z,4.75
2023-01-19T14:32:15.965Z,4.85
2023-01-19T14:34:51.116Z,4.70
2023-01-19T14:40:15.741Z,4.05
2023-01-19T14:42:42.585Z,5.57
2023-01-19T14:45:23.693Z,4.75
2023-01-19T14:48:12.866Z,5.18
2023-01-19T14:50:51.048Z,4.70
2023-01-19T14:53:31.489Z,4.85
2023-01-19T14:56:05.565Z,4.90
2023-01-19T14:58:36.646Z,5.30
2023-01-19T15:01:04.585Z,5.70
2023-01-19T15:03:44.864Z,5.90
2023-01-19T15:06:17.593Z,5.65
2023-01-19T15:08:45.665Z,4.70
2023-01-19T15:11:34.450Z,6.13
2023-01-19T15:14:02.525Z,6.15
2023-01-19T15:16:33.012Z,6.90
2023-01-19T15:19:00.559Z,7.38
2023-01-19T15:21:27.484Z,9.05
2023-01-19T15:23:55.666Z,7.85
2023-01-19T15:26:26.076Z,6.78
2023-01-19T15:28:55.563Z,7.07
2023-01-19T15:31:26.120Z,6.47
2023-01-19T15:33:53.225Z,7.40
2023-01-19T15:36:22.167Z,7.25
2023-01-19T15:38:51.119Z,7.45
2023-01-19T15:41:29.785Z,7.78
2023-01-19T15:43:57.872Z,6.82
2023-01-19T15:46:26.032Z,7.03
2023-01-19T15:48:54.337Z,6.70
2023-01-19T15:51:27.452Z,7.00
2023-01-19T15:53:55.753Z,6.55
2023-01-19T15:56:29.767Z,5.60
2023-01-19T15:58:58.649Z,6.15
2023-01-19T16:01:31.623Z,6.25
2023-01-19T16:04:05.315Z,6.60
2023-01-19T16:06:32.915Z,7.13
2023-01-19T16:09:01.274Z,6.97
2023-01-19T16:11:34.921Z,7.80
2023-01-19T16:14:02.072Z,7.40
2023-01-19T16:16:29.364Z,6.50
2023-01-19T16:18:56.998Z,6.85
2023-01-19T16:21:24.445Z,6.68
2023-01-19T16:23:51.939Z,7.07
2023-01-19T16:26:34.385Z,7.45
2023-01-19T16:29:08.748Z,6.95
2023-01-19T16:31:38.314Z,6.93
2023-01-19T16:34:05.855Z,7.28
2023-01-19T16:36:36.854Z,5.95
2023-01-19T16:39:13.452Z,7.32
2023-01-19T16:41:40.949Z,7.15
2023-01-19T16:57:58.031Z,6.50
2023-01-19T17:00:25.114Z,6.00
2023-01-19T17:02:52.342Z,7.07
2023-01-19T17:05:19.372Z,7.65
2023-01-19T17:07:46.272Z,5.70
2023-01-19T17:10:13.683Z,6.35
2023-01-19T17:12:40.875Z,6.78
2023-01-19T17:15:08.625Z,6.13
2023-01-19T17:17:36.258Z,5.60
2023-01-19T17:20:03.561Z,5.53
2023-01-19T17:22:30.524Z,6.70
2023-01-19T17:24:58.402Z,6.13
2023-01-19T17:27:25.335Z,6.47
2023-01-19T17:29:52.950Z,6.25
2023-01-19T17:32:21.429Z,6.22
2023-01-19T17:34:51.412Z,6.07
2023-01-19T17:37:20.304Z,5.70
2023-01-19T17:39:47.872Z,6.00
2023-01-19T17:42:15.076Z,5.20
2023-01-19T17:44:42.423Z,5.35
2023-01-19T17:47:09.302Z,5.75
2023-01-19T17:49:37.114Z,5.40
2023-01-19T17:52:04.261Z,5.28
2023-01-19T17:54:31.408Z,5.32
2023-01-19T17:57:00.981Z,6.07
2023-01-19T17:59:27.967Z,5.50
2023-01-19T18:01:55.012Z,5.65
2023-01-19T18:04:21.951Z,5.57
2023-01-19T18:06:50.105Z,5.53
2023-01-19T18:09:21.406Z,6.32
2023-01-19T18:11:48.618Z,4.78
2023-01-19T18:14:15.490Z,5.97
2023-01-19T18:16:42.390Z,5.90
2023-01-19T18:19:09.347Z,5.50
2023-01-19T18:21:37.282Z,6.65
2023-01-19T18:24:06.578Z,5.60
2023-01-19T18:26:35.276Z,5.13
2023-01-19T18:29:03.407Z,6.30
2023-01-19T18:31:30.546Z,6.50
2023-01-19T18:33:57.567Z,4.85
2023-01-19T18:36:24.621Z,5.85
2023-01-19T18:38:51.706Z,5.40
2023-01-19T18:41:21.795Z,5.53
2023-01-19T18:43:49.657Z,6.80
2023-01-19T18:46:17.084Z,8.23
2023-01-19T18:48:44.342Z,11.27
2023-01-19T18:51:15.550Z,10.10
2023-01-19T18:53:44.180Z,10.52
2023-01-19T18:56:13.615Z,11.32
2023-01-19T18:58:41.128Z,10.07
2023-01-19T19:01:25.435Z,9.90
2023-01-19T19:03:54.208Z,10.40
2023-01-19T19:06:22.385Z,9.85
2023-01-19T19:08:54.529Z,10.68
2023-01-19T19:11:24.095Z,11.38
2023-01-19T19:14:01.234Z,10.65
2023-01-19T19:16:30.150Z,10.30
2023-01-19T19:18:58.815Z,9.50
2023-01-19T19:21:26.140Z,10.13
2023-01-19T19:23:56.094Z,9.70
2023-01-19T19:26:24.436Z,8.95
2023-01-19T19:28:51.459Z,7.80
2023-01-19T19:31:22.423Z,8.98
2023-01-19T19:33:50.999Z,8.95
2023-01-19T19:36:19.996Z,9.32
2023-01-19T19:38:48.911Z,9.20
2023-01-19T19:41:21.145Z,10.07
2023-01-19T19:43:48.343Z,8.32
2023-01-19T19:46:19.860Z,8.98
2023-01-19T19:48:48.537Z,9.18
2023-01-19T19:51:22.787Z,9.23
2023-01-19T19:53:51.840Z,9.05
2023-01-19T19:56:21.790Z,8.73
2023-01-19T19:58:50.890Z,9.75
2023-01-19T20:01:27.663Z,8.20
2023-01-19T20:03:56.954Z,8.38
2023-01-19T20:06:26.972Z,8.32
2023-01-19T20:08:56.207Z,8.13
2023-01-19T20:11:27.792Z,8.13
2023-01-19T20:13:55.110Z,7.38
2023-01-19T20:16:37.902Z,7.50
2023-01-19T20:19:05.880Z,7.88
2023-01-19T20:21:36.270Z,6.80
2023-01-19T20:24:13.707Z,7.20
2023-01-19T20:26:44.736Z,7.38
2023-01-19T20:29:12.537Z,6.95
2023-01-19T20:31:49.498Z,7.43
2023-01-19T20:34:20.725Z,7.00
2023-01-19T20:36:49.760Z,7.95
2023-01-19T20:39:19.349Z,7.05
2023-01-19T20:41:48.961Z,7.22
2023-01-19T20:44:23.135Z,7.05
2023-01-19T20:46:51.959Z,6.63
2023-01-19T20:49:19.369Z,6.93
2023-01-19T20:51:46.922Z,6.93
2023-01-19T20:54:17.679Z,7.03
2023-01-19T20:56:45.236Z,7.40
2023-01-19T20:59:13.158Z,8.48
2023-01-19T21:01:41.072Z,8.23
2023-01-19T21:04:09.238Z,6.60
2023-01-19T21:06:37.158Z,6.85
2023-01-19T21:09:04.826Z,6.45
2023-01-19T21:11:32.568Z,6.70
2023-01-19T21:13:59.695Z,6.85
2023-01-19T21:16:30.618Z,7.40
2023-01-19T21:18:57.666Z,6.82
2023-01-19T21:21:30.906Z,6.32
2023-01-19T21:24:04.915Z,7.30
2023-01-19T21:26:33.524Z,6.88
2023-01-19T21:29:02.474Z,6.82
2023-01-19T21:31:30.360Z,7.53
2023-01-19T21:33:58.241Z,6.38
2023-01-19T21:36:26.024Z,7.88
2023-01-19T21:39:00.093Z,8.32
2023-01-19T21:41:29.918Z,8.35
2023-01-19T21:43:58.439Z,8.77
2023-01-19T21:46:32.324Z,7.43
2023-01-19T21:49:04.100Z,7.90
2023-01-19T21:51:33.638Z,7.80
2023-01-19T21:54:06.107Z,7.95
2023-01-19T21:56:38.222Z,8.25
2023-01-19T21:59:06.469Z,9.13
2023-01-19T22:01:35.918Z,8.27
2023-01-19T22:04:03.102Z,8.40
2023-01-19T22:06:30.250Z,7.97
2023-01-19T22:08:58.261Z,7.82
2023-01-19T22:11:25.437Z,8.20
2023-01-19T22:13:52.777Z,8.73
2023-01-19T22:16:25.707Z,8.43
2023-01-19T22:19:00.348Z,8.63
2023-01-19T22:21:35.469Z,7.38
2023-01-19T22:24:04.940Z,7.55
2023-01-19T22:26:34.100Z,7.88
2023-01-19T22:29:03.819Z,8.75
2023-01-19T22:31:31.668Z,8.75
2023-01-19T22:33:59.493Z,8.98
2023-01-19T22:36:30.947Z,8.98
2023-01-19T22:39:04.159Z,8.52
2023-01-19T22:41:40.842Z,8.68
2023-01-19T22:44:27.417Z,9.00
2023-01-19T22:46:57.407Z,8.38
2023-01-19T22:49:24.729Z,9.25
2023-01-19T22:51:54.036Z,8.80
2023-01-19T22:54:22.951Z,8.98
2023-01-19T22:56:49.994Z,9.27
2023-01-19T22:59:16.839Z,8.07
2023-01-19T23:01:44.609Z,8.20
2023-01-19T23:04:16.007Z,7.97
2023-01-19T23:06:46.633Z,8.55
2023-01-19T23:09:15.178Z,9.35
2023-01-19T23:11:48.443Z,8.85
2023-01-19T23:14:19.434Z,9.63
2023-01-19T23:16:47.090Z,9.57
2023-01-19T23:19:16.938Z,9.43
2023-01-19T23:21:45.139Z,9.18
2023-01-19T23:24:12.354Z,9.63
2023-01-19T23:26:39.484Z,8.63
2023-01-19T23:29:15.069Z,9.00
2023-01-19T23:31:48.962Z,7.93
2023-01-19T23:34:16.979Z,9.77
2023-01-19T23:36:44.876Z,9.05
2023-01-19T23:39:22.123Z,9.30
2023-01-19T23:41:50.378Z,8.45
2023-01-19T23:44:18.111Z,8.05
2023-01-19T23:46:46.179Z,8.43
2023-01-19T23:49:14.119Z,8.27
2023-01-19T23:51:41.573Z,8.60
2023-01-19T23:54:08.698Z,8.40
2023-01-19T23:56:37.621Z,8.68
2023-01-19T23:59:08.151Z,8.02
